Time;durP1;ratioP1;P1;durP2;ratioP2;P2;SDS_P1;SDS_P2;PMS_P1;PMS_P2;Temp;Humidity;BMP_temperature;BMP_pressure;BME280_temperature;BME280_humidity;BME280_pressure;Samples;Min_cycle;Max_cycle;Signal;HPM_P1;HPM_P2
2022/08/10 00:00:31;;;;;;;5.95;1.30;;;24.80;58.30;;;;;;4951993;28;20027;-89
2022/08/10 00:02:59;;;;;;;2.67;0.88;;;24.80;58.60;;;;;;4969268;28;20434;-88
2022/08/10 00:05:27;;;;;;;4.55;1.23;;;24.80;58.80;;;;;;4969266;28;20035;-91
2022/08/10 00:07:53;;;;;;;4.07;1.25;;;24.70;58.60;;;;;;4969264;28;20027;-89
2022/08/10 00:10:21;;;;;;;5.45;1.05;;;24.70;58.70;;;;;;4967743;28;20262;-88
2022/08/10 00:12:47;;;;;;;3.05;1.30;;;24.60;58.70;;;;;;4967636;28;20439;-89
2022/08/10 00:15:16;;;;;;;3.63;1.00;;;24.60;58.70;;;;;;4973197;28;20026;-88
2022/08/10 00:17:42;;;;;;;1.77;0.80;;;24.60;58.90;;;;;;4973157;28;20027;-91
2022/08/10 00:20:09;;;;;;;4.57;1.25;;;24.60;59.30;;;;;;4973657;28;20026;-89
2022/08/10 00:22:34;;;;;;;4.03;0.90;;;24.50;59.00;;;;;;4954005;28;20034;-89
2022/08/10 00:25:01;;;;;;;2.80;1.20;;;24.50;59.10;;;;;;4973063;28;20130;-89
2022/08/10 00:27:28;;;;;;;2.45;1.00;;;24.40;59.20;;;;;;4955610;28;20031;-89
2022/08/10 00:29:54;;;;;;;2.60;0.95;;;24.40;59.20;;;;;;4972838;28;20499;-90
2022/08/10 00:32:21;;;;;;;3.58;1.30;;;24.40;59.30;;;;;;4972698;28;20110;-88
2022/08/10 00:34:47;;;;;;;9.30;1.23;;;24.40;59.20;;;;;;4955254;28;20428;-90
2022/08/10 00:37:13;;;;;;;3.22;0.98;;;24.40;59.10;;;;;;4972891;28;20065;-89
2022/08/10 00:39:40;;;;;;;1.92;0.95;;;24.40;59.40;;;;;;4971381;28;20395;-89
2022/08/10 00:42:10;;;;;;;3.78;1.20;;;24.40;59.40;;;;;;4955151;28;20023;-92
2022/08/10 00:44:48;;;;;;;2.10;1.10;;;24.30;59.50;;;;;;4992739;28;20057;-89
2022/08/10 00:47:16;;;;;;;5.70;1.08;;;24.30;59.80;;;;;;4989727;28;20023;-88
2022/08/10 00:49:42;;;;;;;2.10;1.27;;;24.30;59.40;;;;;;4968744;28;20047;-88
2022/08/10 00:52:10;;;;;;;2.45;1.23;;;24.20;59.50;;;;;;4972360;28;20217;-88
2022/08/10 00:54:36;;;;;;;2.97;1.20;;;24.20;59.60;;;;;;4972187;28;20104;-89
2022/08/10 00:57:05;;;;;;;3.53;0.93;;;24.20;59.80;;;;;;4972386;28;20112;-90
2022/08/10 00:59:33;;;;;;;5.30;1.25;;;24.20;59.70;;;;;;4972541;28;20062;-89
2022/08/10 01:01:59;;;;;;;4.90;1.10;;;24.20;59.90;;;;;;4969589;28;20027;-88
2022/08/10 01:04:25;;;;;;;3.72;1.13;;;24.10;59.90;;;;;;4972656;28;20026;-89
2022/08/10 01:07:17;;;;;;;1.55;0.80;;;24.10;60.00;;;;;;4972590;28;20031;-89
2022/08/10 01:09:55;;;;;;;5.00;1.23;;;24.10;60.20;;;;;;4971160;28;20038;-90
2022/08/10 01:12:38;;;;;;;3.22;1.25;;;24.00;60.40;;;;;;4971145;28;20031;-88
2022/08/10 01:15:35;;;;;;;3.13;1.00;;;23.90;60.70;;;;;;4970643;28;20346;-91
2022/08/10 01:18:14;;;;;;;4.97;1.23;;;23.80;60.60;;;;;;4971706;28;20027;-88
2022/08/10 01:21:01;;;;;;;4.20;1.08;;;23.80;60.80;;;;;;4971298;28;20030;-90
2022/08/10 01:23:30;;;;;;;2.33;0.82;;;23.70;60.80;;;;;;4971730;28;20022;-90
2022/08/10 01:26:09;;;;;;;2.30;1.10;;;23.70;60.70;;;;;;4971263;28;20114;-89
2022/08/10 01:28:59;;;;;;;4.93;1.10;;;23.70;61.00;;;;;;4945249;28;20043;-90
2022/08/10 01:31:32;;;;;;;4.15;1.08;;;23.60;61.60;;;;;;4970366;28;20085;-90
2022/08/10 01:34:06;;;;;;;3.20;1.20;;;23.60;61.40;;;;;;4960921;28;20029;-89
2022/08/10 01:36:45;;;;;;;6.93;1.20;;;23.50;61.30;;;;;;4971825;28;20125;-88
2022/08/10 01:39:18;;;;;;;1.92;0.90;;;23.50;61.40;;;;;;4970459;28;20566;-90
2022/08/10 01:41:47;;;;;;;2.80;1.02;;;23.50;61.30;;;;;;4954189;28;20031;-92
2022/08/10 01:44:18;;;;;;;4.05;1.33;;;23.50;61.50;;;;;;4971608;28;20033;-88
2022/08/10 01:46:50;;;;;;;6.85;1.00;;;23.50;62.00;;;;;;4971333;28;20451;-88
2022/08/10 01:49:18;;;;;;;3.65;1.20;;;23.40;62.00;;;;;;4969830;28;20054;-88
2022/08/10 01:51:55;;;;;;;3.47;0.90;;;23.30;61.80;;;;;;4953820;28;20069;-91
2022/08/10 01:54:24;;;;;;;4.43;1.20;;;23.30;61.80;;;;;;4969554;28;20123;-88
2022/08/10 01:56:54;;;;;;;5.03;0.90;;;23.30;62.20;;;;;;4971164;28;20518;-88
2022/08/10 01:59:34;;;;;;;7.13;1.10;;;23.30;61.90;;;;;;4971464;28;20023;-89
2022/08/10 02:02:06;;;;;;;4.05;1.25;;;23.30;62.20;;;;;;4961721;28;20019;-88
2022/08/10 02:04:36;;;;;;;2.55;1.02;;;23.30;62.20;;;;;;4971612;28;20054;-90
2022/08/10 02:07:05;;;;;;;2.35;1.15;;;23.30;61.90;;;;;;4953908;28;21646;-88
2022/08/10 02:09:35;;;;;;;3.58;1.00;;;23.30;62.40;;;;;;4971211;28;20495;-90
2022/08/10 02:12:08;;;;;;;4.20;1.10;;;23.20;62.10;;;;;;4970859;28;20041;-89
2022/08/10 02:14:43;;;;;;;4.07;1.15;;;23.30;62.30;;;;;;4971102;28;20114;-88
2022/08/10 02:17:12;;;;;;;5.38;1.35;;;23.30;61.90;;;;;;4971142;28;20027;-88
2022/08/10 02:19:40;;;;;;;5.90;1.13;;;23.20;61.90;;;;;;4971147;28;20206;-89
2022/08/10 02:22:07;;;;;;;4.97;1.38;;;23.20;62.10;;;;;;4970683;28;20031;-89
2022/08/10 02:24:34;;;;;;;3.33;1.20;;;23.20;62.40;;;;;;4953584;28;20121;-89
2022/08/10 02:27:01;;;;;;;5.82;1.20;;;23.20;62.40;;;;;;4970976;28;20118;-88
2022/08/10 02:29:28;;;;;;;4.10;1.40;;;23.20;62.30;;;;;;4968009;28;20037;-89
2022/08/10 02:31:55;;;;;;;5.05;1.10;;;23.10;62.40;;;;;;4970752;28;20058;-90
2022/08/10 02:34:22;;;;;;;3.15;1.13;;;23.20;62.20;;;;;;4970348;28;20529;-88
2022/08/10 02:36:52;;;;;;;13.63;1.60;;;23.20;62.40;;;;;;4952423;28;20022;-89
2022/08/10 02:39:20;;;;;;;3.63;1.30;;;23.10;62.60;;;;;;4969348;28;20055;-88
2022/08/10 02:41:52;;;;;;;2.40;1.05;;;23.10;62.60;;;;;;4969434;28;20106;-89
2022/08/10 02:44:39;;;;;;;3.05;1.00;;;23.10;62.90;;;;;;4970470;28;20093;-90
2022/08/10 02:47:31;;;;;;;4.03;1.40;;;23.10;62.30;;;;;;4968359;28;20026;-89
2022/08/10 02:50:06;;;;;;;3.28;1.10;;;23.10;62.60;;;;;;4968894;28;20062;-92
2022/08/10 02:52:41;;;;;;;1.70;1.00;;;23.10;62.60;;;;;;4952718;28;20030;-90
2022/08/10 02:55:20;;;;;;;7.68;1.10;;;23.10;62.70;;;;;;4970214;28;20503;-89
2022/08/10 02:57:51;;;;;;;2.83;1.20;;;23.00;62.70;;;;;;4952833;28;20474;-90
2022/08/10 03:00:17;;;;;;;4.05;1.30;;;23.00;62.60;;;;;;4970200;28;20027;-88
2022/08/10 03:02:45;;;;;;;2.80;1.52;;;23.00;63.20;;;;;;4970195;28;20414;-90
2022/08/10 03:05:16;;;;;;;3.50;1.20;;;23.00;62.30;;;;;;4970161;28;20023;-89
2022/08/10 03:07:47;;;;;;;4.38;1.50;;;23.00;62.60;;;;;;4968438;28;20030;-89
2022/08/10 03:10:19;;;;;;;2.63;1.20;;;23.00;62.70;;;;;;4949155;28;20474;-89
2022/08/10 03:12:48;;;;;;;4.13;1.20;;;23.10;62.70;;;;;;4968909;28;20169;-89
2022/08/10 03:15:17;;;;;;;5.55;1.17;;;23.10;62.40;;;;;;4968351;28;20023;-88
2022/08/10 03:17:47;;;;;;;6.47;1.35;;;23.00;63.10;;;;;;4966500;28;20031;-89
2022/08/10 03:20:14;;;;;;;2.20;1.10;;;23.00;63.10;;;;;;4967730;28;20101;-88
2022/08/10 03:22:42;;;;;;;2.90;1.30;;;23.00;63.10;;;;;;4970089;28;20030;-91
2022/08/10 03:25:10;;;;;;;4.30;1.13;;;23.00;62.80;;;;;;4970078;28;20026;-88
2022/08/10 03:27:38;;;;;;;3.42;1.20;;;22.90;63.30;;;;;;4968807;28;20062;-89
2022/08/10 03:30:05;;;;;;;4.30;1.15;;;22.90;63.30;;;;;;4969982;28;20033;-88
2022/08/10 03:32:33;;;;;;;5.63;1.30;;;22.80;63.70;;;;;;4968312;28;20019;-89
2022/08/10 03:34:59;;;;;;;3.28;1.30;;;22.80;63.70;;;;;;4952324;28;20026;-89
2022/08/10 03:37:26;;;;;;;3.47;1.10;;;22.70;64.20;;;;;;4952043;28;20116;-89
2022/08/10 03:39:53;;;;;;;4.57;1.45;;;22.70;64.00;;;;;;4952239;28;20069;-92
2022/08/10 03:42:21;;;;;;;4.05;1.17;;;22.70;64.20;;;;;;4969700;28;20025;-90
2022/08/10 03:44:48;;;;;;;4.70;1.40;;;22.60;64.50;;;;;;4969620;28;20027;-89
2022/08/10 03:47:16;;;;;;;3.65;1.52;;;22.60;64.60;;;;;;4969921;28;20027;-91
2022/08/10 03:49:42;;;;;;;7.70;1.67;;;22.50;64.40;;;;;;4972524;28;20042;-89
2022/08/10 03:52:09;;;;;;;3.70;1.40;;;22.50;64.60;;;;;;4973603;28;20023;-89
2022/08/10 03:54:35;;;;;;;5.75;1.42;;;22.50;64.60;;;;;;4973681;28;20026;-88
2022/08/10 03:57:01;;;;;;;4.15;1.70;;;22.50;65.20;;;;;;4973392;28;20101;-89
2022/08/10 03:59:30;;;;;;;2.33;1.50;;;22.50;64.80;;;;;;4962596;28;20118;-89
2022/08/10 04:01:56;;;;;;;4.72;1.70;;;22.40;65.40;;;;;;4973448;28;20019;-88
2022/08/10 04:04:22;;;;;;;5.93;1.50;;;22.40;65.40;;;;;;4973597;28;20081;-89
2022/08/10 04:06:50;;;;;;;4.32;1.58;;;22.40;65.50;;;;;;4973697;28;20384;-89
2022/08/10 04:09:16;;;;;;;3.90;1.33;;;22.40;65.70;;;;;;4973173;28;20431;-89
2022/08/10 04:11:42;;;;;;;5.20;1.30;;;22.30;65.90;;;;;;4955999;28;20030;-89
2022/08/10 04:14:10;;;;;;;4.47;1.25;;;22.20;65.80;;;;;;4973315;28;20030;-90
2022/08/10 04:16:35;;;;;;;3.90;1.73;;;22.20;65.80;;;;;;4973157;28;20109;-89
2022/08/10 04:19:02;;;;;;;2.35;1.38;;;22.20;66.20;;;;;;4973075;28;20551;-90
2022/08/10 04:21:37;;;;;;;3.80;1.85;;;22.20;66.20;;;;;;4973173;28;20022;-88
2022/08/10 04:24:05;;;;;;;2.92;1.50;;;22.20;66.20;;;;;;4972527;28;20026;-91
2022/08/10 04:26:31;;;;;;;3.40;1.30;;;22.20;66.60;;;;;;4962759;28;20046;-89
2022/08/10 04:28:56;;;;;;;4.25;1.58;;;22.20;66.50;;;;;;4973064;28;20496;-93
2022/08/10 04:31:25;;;;;;;4.97;1.50;;;22.20;66.30;;;;;;4973106;28;20038;-89
2022/08/10 04:33:53;;;;;;;3.30;1.90;;;22.10;67.20;;;;;;4972805;28;20487;-89
2022/08/10 04:36:20;;;;;;;7.55;1.90;;;22.10;67.20;;;;;;4972715;28;20027;-92
2022/08/10 04:38:48;;;;;;;4.07;1.90;;;22.10;67.40;;;;;;4972692;28;20023;-89
2022/08/10 04:41:15;;;;;;;4.40;1.60;;;22.10;67.50;;;;;;4972960;28;20025;-89
2022/08/10 04:43:41;;;;;;;4.43;1.42;;;22.10;67.00;;;;;;4962397;28;20053;-92
2022/08/10 04:46:06;;;;;;;5.43;1.90;;;22.10;67.50;;;;;;4972756;28;20019;-89
2022/08/10 04:48:32;;;;;;;4.68;1.75;;;22.10;67.50;;;;;;4972673;28;20050;-90
2022/08/10 04:50:58;;;;;;;2.88;1.50;;;22.00;67.60;;;;;;4972527;28;20035;-89
2022/08/10 04:53:23;;;;;;;4.35;1.75;;;22.00;67.80;;;;;;4971843;28;20022;-88
2022/08/10 04:55:49;;;;;;;5.22;1.80;;;22.00;68.20;;;;;;4955085;28;20031;-90
2022/08/10 04:58:15;;;;;;;4.07;1.65;;;21.90;67.80;;;;;;4972241;28;20495;-89
2022/08/10 05:00:40;;;;;;;3.80;1.48;;;21.80;68.30;;;;;;4969915;28;20033;-89
2022/08/10 05:03:06;;;;;;;5.70;1.80;;;21.90;68.50;;;;;;4972652;28;20023;-89
2022/08/10 05:05:32;;;;;;;2.45;1.65;;;21.90;68.60;;;;;;4972764;28;20069;-88
2022/08/10 05:07:57;;;;;;;6.97;1.50;;;21.80;68.60;;;;;;4972387;28;20414;-90
2022/08/10 05:10:23;;;;;;;2.30;1.50;;;21.90;68.50;;;;;;4954506;28;20047;-88
2022/08/10 05:12:49;;;;;;;7.03;1.70;;;21.80;68.80;;;;;;4972276;28;20023;-89
2022/08/10 05:15:17;;;;;;;5.25;1.73;;;21.80;69.00;;;;;;4972132;28;20030;-91
2022/08/10 05:17:43;;;;;;;5.60;2.05;;;21.80;69.00;;;;;;4972038;28;20577;-89
2022/08/10 05:20:10;;;;;;;7.47;1.67;;;21.80;69.00;;;;;;4972114;28;20042;-89
2022/08/10 05:22:43;;;;;;;6.18;1.42;;;21.80;69.30;;;;;;4972014;28;20443;-89
2022/08/10 05:25:15;;;;;;;6.57;1.73;;;21.80;69.60;;;;;;4972281;28;20027;-90
2022/08/10 05:27:41;;;;;;;7.30;1.77;;;21.80;69.00;;;;;;4970235;28;20106;-89
2022/08/10 05:30:10;;;;;;;7.38;2.85;;;21.80;69.30;;;;;;4954489;28;20121;-89
2022/08/10 05:32:36;;;;;;;6.18;1.92;;;21.90;69.50;;;;;;4972229;28;20019;-88
2022/08/10 05:35:03;;;;;;;5.97;1.67;;;21.90;69.50;;;;;;4944139;28;20184;-86
2022/08/10 05:37:29;;;;;;;4.88;1.98;;;21.90;69.50;;;;;;4971537;28;20026;-86
2022/08/10 05:39:55;;;;;;;4.72;1.77;;;21.90;69.70;;;;;;4971519;28;20031;-86
2022/08/10 05:42:23;;;;;;;4.88;2.00;;;22.00;69.90;;;;;;4972999;28;20027;-87
2022/08/10 05:44:49;;;;;;;6.30;1.88;;;22.00;69.60;;;;;;4969728;28;20105;-87
2022/08/10 05:47:15;;;;;;;6.28;2.20;;;22.00;69.90;;;;;;4954199;28;20105;-87
2022/08/10 05:49:41;;;;;;;3.13;1.67;;;22.00;70.10;;;;;;4971266;28;20300;-87
2022/08/10 05:52:06;;;;;;;6.63;1.67;;;22.00;70.00;;;;;;4971498;28;20251;-87
2022/08/10 05:54:32;;;;;;;3.28;1.50;;;22.00;69.80;;;;;;4971330;28;20019;-87
2022/08/10 05:56:58;;;;;;;5.03;1.85;;;22.00;70.40;;;;;;4970461;28;20031;-86
2022/08/10 05:59:26;;;;;;;6.93;1.73;;;22.00;70.60;;;;;;4970868;28;20035;-87
2022/08/10 06:01:53;;;;;;;5.15;2.00;;;22.00;70.20;;;;;;4971295;28;20022;-86
2022/08/10 06:04:28;;;;;;;5.20;1.80;;;22.10;70.50;;;;;;4971171;28;20046;-87
2022/08/10 06:06:54;;;;;;;;;;;22.10;70.50;;;;;;4969989;28;20439;-87
2022/08/10 06:09:20;;;;;;;5.13;1.63;;;22.10;70.70;;;;;;4971152;28;20406;-87
2022/08/10 06:11:49;;;;;;;6.47;1.58;;;22.10;70.60;;;;;;4970988;28;20042;-87
2022/08/10 06:17:01;;;;;;;6.28;1.80;;;22.30;70.50;;;;;;4970101;28;20063;-86
2022/08/10 06:19:30;;;;;;;3.50;1.80;;;22.40;70.50;;;;;;4971014;28;20019;-94
2022/08/10 06:22:00;;;;;;;6.57;1.80;;;22.40;70.20;;;;;;4960359;23;20044;-89
2022/08/10 06:24:30;;;;;;;5.43;1.83;;;22.50;70.30;;;;;;4950340;29;20396;-88
2022/08/10 06:26:56;;;;;;;6.40;2.00;;;22.50;70.20;;;;;;4954188;28;20028;-89
2022/08/10 06:29:23;;;;;;;7.40;2.00;;;22.50;70.30;;;;;;4965996;28;20031;-88
2022/08/10 06:31:51;;;;;;;3.35;1.80;;;22.60;70.00;;;;;;4951349;29;20039;-88
2022/08/10 06:34:21;;;;;;;5.55;2.20;;;22.70;70.40;;;;;;4951320;29;20580;-88
2022/08/10 06:36:48;;;;;;;6.43;2.05;;;22.80;70.00;;;;;;4951259;29;20027;-88
2022/08/10 06:39:14;;;;;;;5.43;2.08;;;22.80;70.20;;;;;;4951010;29;20023;-87
2022/08/10 06:41:45;;;;;;;3.75;1.73;;;22.90;70.20;;;;;;4949700;29;20026;-88
2022/08/10 06:44:17;;;;;;;7.90;1.85;;;22.90;70.30;;;;;;4950960;29;20031;-88
2022/08/10 06:46:47;;;;;;;3.50;1.70;;;22.90;69.60;;;;;;4950052;29;20030;-89
2022/08/10 06:49:15;;;;;;;6.53;1.70;;;23.00;70.00;;;;;;4960660;29;20027;-88
2022/08/10 06:51:43;;;;;;;4.82;1.90;;;23.00;69.70;;;;;;4957416;29;20078;-87
2022/08/10 06:54:11;;;;;;;6.65;1.92;;;23.10;69.60;;;;;;4950798;29;20074;-88
2022/08/10 06:56:43;;;;;;;6.75;1.80;;;23.20;69.90;;;;;;4950794;28;20596;-87
2022/08/10 06:59:19;;;;;;;4.70;1.85;;;23.30;69.10;;;;;;4949188;28;20562;-88
2022/08/10 07:01:49;;;;;;;4.43;1.85;;;23.40;69.60;;;;;;4947415;29;20498;-87
2022/08/10 07:04:22;;;;;;;3.83;1.80;;;23.40;68.60;;;;;;4949392;29;20102;-88
2022/08/10 07:06:49;;;;;;;11.60;2.05;;;23.50;68.70;;;;;;4949031;29;20078;-88
2022/08/10 07:09:17;;;;;;;7.18;1.83;;;23.60;68.50;;;;;;4950525;29;20029;-88
2022/08/10 07:11:44;;;;;;;7.53;1.80;;;23.70;68.60;;;;;;4950530;29;20105;-88
2022/08/10 07:14:12;;;;;;;4.13;1.98;;;23.80;68.40;;;;;;4965351;28;20023;-88
2022/08/10 07:16:41;;;;;;;5.93;1.95;;;23.90;68.20;;;;;;4953452;28;20422;-88
2022/08/10 07:19:09;;;;;;;10.40;2.20;;;23.90;68.00;;;;;;4950674;29;20380;-88
2022/08/10 07:21:38;;;;;;;6.13;1.83;;;24.10;67.60;;;;;;4943087;29;20437;-88
2022/08/10 07:24:08;;;;;;;6.72;1.90;;;24.10;67.50;;;;;;4949842;28;20023;-88
2022/08/10 07:26:36;;;;;;;12.60;2.00;;;24.20;67.30;;;;;;4933130;29;20026;-88
2022/08/10 07:29:05;;;;;;;5.60;2.00;;;24.30;66.30;;;;;;4950383;29;20027;-87
2022/08/10 07:31:31;;;;;;;6.38;1.52;;;24.40;66.40;;;;;;4950894;29;20082;-87
2022/08/10 07:33:58;;;;;;;5.63;1.75;;;24.50;65.70;;;;;;4933053;29;20023;-87
2022/08/10 07:36:26;;;;;;;7.53;1.70;;;24.60;65.90;;;;;;4933597;29;20023;-88
2022/08/10 07:38:54;;;;;;;4.05;1.88;;;24.70;65.40;;;;;;4953428;29;20028;-89
2022/08/10 07:41:24;;;;;;;7.32;1.83;;;24.80;65.50;;;;;;4950551;29;20832;-89
2022/08/10 07:43:51;;;;;;;6.35;1.80;;;24.90;65.80;;;;;;4950785;29;20039;-92
2022/08/10 07:46:20;;;;;;;5.55;1.70;;;25.00;64.60;;;;;;4932278;29;20587;-89
2022/08/10 07:48:49;;;;;;;9.50;1.80;;;25.10;64.60;;;;;;4950322;29;20020;-86
2022/08/10 07:51:18;;;;;;;5.85;1.77;;;25.10;65.00;;;;;;4950250;29;20032;-87
2022/08/10 07:53:49;;;;;;;1457.75;223.57;;;25.20;64.70;;;;;;4950824;29;20023;-87
2022/08/10 07:56:16;;;;;;;71.32;7.47;;;25.30;64.30;;;;;;4950128;28;20023;-86
2022/08/10 07:58:48;;;;;;;64.97;8.77;;;25.50;64.10;;;;;;4935724;29;20090;-87
2022/08/10 08:01:15;;;;;;;10.02;2.17;;;25.50;63.90;;;;;;4939000;29;20111;-86
2022/08/10 08:03:42;;;;;;;36.25;5.40;;;25.60;63.50;;;;;;4949610;29;20022;-87
2022/08/10 08:06:08;;;;;;;5.03;1.63;;;25.70;63.70;;;;;;4950460;28;20377;-86
2022/08/10 08:08:36;;;;;;;151.73;10.10;;;25.80;63.60;;;;;;4950035;29;20077;-87
2022/08/10 08:11:03;;;;;;;28.55;3.33;;;25.90;63.70;;;;;;4948818;29;20428;-86
2022/08/10 08:13:30;;;;;;;7.95;2.22;;;26.00;63.20;;;;;;4948394;29;20484;-86
2022/08/10 08:15:57;;;;;;;4.70;2.10;;;26.10;63.00;;;;;;4950000;29;20023;-83
2022/08/10 08:18:24;;;;;;;10.63;1.85;;;26.20;63.00;;;;;;4950231;29;20059;-86
2022/08/10 08:20:50;;;;;;;8.18;1.88;;;26.30;62.80;;;;;;4949911;29;20019;-85
2022/08/10 08:23:17;;;;;;;6.43;1.67;;;26.50;62.70;;;;;;4943313;29;20105;-85
2022/08/10 08:25:44;;;;;;;5.07;1.80;;;26.50;62.10;;;;;;4948497;29;20020;-86
2022/08/10 08:28:11;;;;;;;9.15;1.90;;;26.70;62.30;;;;;;4949697;29;20071;-85
2022/08/10 08:30:39;;;;;;;5.88;1.75;;;26.70;61.60;;;;;;4964429;28;20424;-86
2022/08/10 08:33:06;;;;;;;4.80;1.75;;;26.80;61.50;;;;;;4949942;28;20428;-86
2022/08/10 08:35:32;;;;;;;5.35;1.45;;;26.90;61.60;;;;;;4952501;28;20023;-85
2022/08/10 08:37:59;;;;;;;5.65;1.60;;;27.00;61.80;;;;;;4949994;29;20135;-85
2022/08/10 08:40:29;;;;;;;12.75;1.90;;;27.10;61.30;;;;;;4953331;28;20049;-86
2022/08/10 08:43:07;;;;;;;6.45;1.85;;;27.30;61.50;;;;;;4953478;29;20059;-85
2022/08/10 08:45:47;;;;;;;6.15;1.88;;;27.40;61.00;;;;;;4951539;29;20015;-86
2022/08/10 08:48:46;;;;;;;5.55;1.48;;;27.50;60.80;;;;;;4953100;28;20515;-85
2022/08/10 08:51:23;;;;;;;6.05;1.73;;;27.60;59.80;;;;;;4952644;29;20039;-85
2022/08/10 08:53:57;;;;;;;4.10;1.70;;;27.70;60.00;;;;;;4951867;28;20023;-86
2022/08/10 08:56:45;;;;;;;10.57;1.70;;;27.80;59.90;;;;;;4952097;29;20117;-85
2022/08/10 08:59:40;;;;;;;4.47;1.60;;;28.00;60.10;;;;;;4952325;29;20019;-86
2022/08/10 09:02:30;;;;;;;3.88;1.38;;;28.10;59.50;;;;;;4951413;29;20028;-84
2022/08/10 09:05:23;;;;;;;12.93;1.70;;;28.20;59.00;;;;;;4952792;29;20023;-85
2022/08/10 09:08:09;;;;;;;14.18;2.30;;;28.30;59.10;;;;;;4965863;28;20391;-87
2022/08/10 09:11:03;;;;;;;10.48;1.98;;;28.40;59.60;;;;;;4952830;29;20032;-87
2022/08/10 09:13:48;;;;;;;8.10;2.00;;;28.50;59.30;;;;;;4952881;28;20074;-87
2022/08/10 09:16:27;;;;;;;7.93;1.88;;;28.70;58.90;;;;;;4966183;28;20696;-86
2022/08/10 09:19:21;;;;;;;3.40;1.73;;;28.80;58.40;;;;;;4966574;28;20483;-87
2022/08/10 09:22:23;;;;;;;7.57;1.42;;;28.90;58.30;;;;;;4950497;28;20114;-88
2022/08/10 09:25:00;;;;;;;6.43;1.60;;;29.00;57.90;;;;;;4952081;29;20054;-86
2022/08/10 09:27:35;;;;;;;4.53;1.42;;;29.10;57.20;;;;;;4951271;29;20120;-87
2022/08/10 09:30:06;;;;;;;6.80;1.70;;;29.20;57.60;;;;;;4932028;29;20035;-86
2022/08/10 09:32:40;;;;;;;6.72;1.70;;;29.30;57.60;;;;;;4952309;28;20212;-87
2022/08/10 09:35:15;;;;;;;6.72;1.55;;;29.40;56.60;;;;;;4952623;29;20055;-86
2022/08/10 09:38:09;;;;;;;7.32;1.52;;;29.50;57.40;;;;;;4951672;29;20023;-90
2022/08/10 09:40:45;;;;;;;6.90;1.70;;;29.60;57.00;;;;;;4951873;29;20023;-88
2022/08/10 09:43:35;;;;;;;19.08;2.20;;;29.80;56.40;;;;;;4949642;29;20444;-90
2022/08/10 09:46:22;;;;;;;2.42;1.30;;;29.90;56.70;;;;;;4949338;28;20031;-87
2022/08/10 09:49:02;;;;;;;3.42;1.60;;;30.00;56.30;;;;;;4952441;29;20142;-86
2022/08/10 09:51:58;;;;;;;6.68;1.70;;;30.10;56.20;;;;;;4943495;29;20086;-86
2022/08/10 09:55:01;;;;;;;7.55;1.50;;;30.20;55.60;;;;;;4950243;29;20035;-86
2022/08/10 09:57:50;;;;;;;3.35;1.20;;;30.40;54.20;;;;;;4952194;29;20074;-86
2022/08/10 10:00:19;;;;;;;6.82;1.27;;;30.50;54.50;;;;;;4952039;29;20015;-86
2022/08/10 10:03:06;;;;;;;3.45;1.40;;;30.70;54.20;;;;;;4951819;29;20027;-85
2022/08/10 10:05:45;;;;;;;5.55;1.45;;;30.70;54.00;;;;;;4933270;29;20019;-86
2022/08/10 10:08:16;;;;;;;6.43;1.25;;;30.80;54.50;;;;;;4950171;29;20023;-86
2022/08/10 10:10:56;;;;;;;7.88;1.45;;;30.90;54.30;;;;;;4939092;29;20063;-86
2022/08/10 10:13:39;;;;;;;5.38;1.30;;;31.10;53.60;;;;;;4951232;29;20019;-86
2022/08/10 10:16:34;;;;;;;6.35;1.27;;;31.10;54.20;;;;;;4950685;29;20020;-86
2022/08/10 10:19:27;;;;;;;10.55;1.30;;;31.30;53.30;;;;;;4952189;29;20023;-86
2022/08/10 10:22:20;;;;;;;5.60;1.67;;;31.50;53.10;;;;;;4950896;29;20051;-86
2022/08/10 10:25:31;;;;;;;5.10;1.45;;;31.60;52.50;;;;;;4948573;29;20036;-87
2022/08/10 10:28:32;;;;;;;5.68;1.63;;;31.70;53.20;;;;;;4942780;29;20272;-86
2022/08/10 10:31:03;;;;;;;8.43;1.30;;;31.90;52.10;;;;;;4950767;29;20114;-86
2022/08/10 10:33:34;;;;;;;5.70;1.60;;;31.90;51.60;;;;;;4938394;29;20019;-86
2022/08/10 10:36:01;;;;;;;4.35;1.30;;;32.00;51.60;;;;;;4940037;29;20062;-86
2022/08/10 10:38:35;;;;;;;9.10;1.80;;;32.10;51.40;;;;;;4933979;29;20019;-86
2022/08/10 10:41:01;;;;;;;;;;;32.20;51.10;;;;;;4950006;29;20027;-86
2022/08/10 10:43:27;;;;;;;4.97;1.40;;;32.30;50.90;;;;;;4950948;29;19906;-86
2022/08/10 10:45:58;;;;;;;7.22;1.30;;;32.50;51.00;;;;;;4951206;29;20034;-86
2022/08/10 10:48:38;;;;;;;3.28;1.00;;;32.60;50.40;;;;;;4951082;29;20114;-86
2022/08/10 10:51:33;;;;;;;7.13;1.42;;;32.60;50.30;;;;;;4933449;29;20039;-86
2022/08/10 10:54:09;;;;;;;13.98;1.50;;;32.80;50.60;;;;;;4951114;29;20043;-86
2022/08/10 10:56:39;;;;;;;7.95;1.45;;;32.80;50.70;;;;;;4947231;29;20059;-86
2022/08/10 10:59:28;;;;;;;2.17;1.20;;;32.90;49.90;;;;;;4949816;28;20023;-85
2022/08/10 11:02:08;;;;;;;3.47;1.17;;;33.10;49.40;;;;;;4950019;29;20362;-87
2022/08/10 11:04:48;;;;;;;4.38;1.52;;;33.20;49.70;;;;;;4949484;29;20055;-86
2022/08/10 11:07:20;;;;;;;5.13;1.10;;;33.30;49.20;;;;;;4951436;29;20511;-86
2022/08/10 11:09:57;;;;;;;5.75;1.50;;;33.30;49.50;;;;;;4948784;29;20717;-86
2022/08/10 11:12:42;;;;;;;5.45;1.20;;;33.30;49.00;;;;;;4949666;29;20403;-86
2022/08/10 11:15:26;;;;;;;4.93;1.10;;;33.60;49.20;;;;;;4949016;29;20023;-86
2022/08/10 11:17:58;;;;;;;1.63;1.05;;;33.80;48.30;;;;;;4949536;29;20027;-86
2022/08/10 11:20:35;;;;;;;4.78;1.08;;;33.90;47.90;;;;;;4951449;29;20563;-86
2022/08/10 11:23:07;;;;;;;4.05;1.00;;;33.90;48.10;;;;;;4949568;29;20043;-86
2022/08/10 11:25:39;;;;;;;5.05;0.90;;;34.00;48.20;;;;;;4949920;29;20440;-86
2022/08/10 11:28:26;;;;;;;4.40;1.13;;;34.10;47.10;;;;;;4952221;29;20031;-89
2022/08/10 11:31:03;;;;;;;5.75;1.00;;;34.20;47.50;;;;;;4948007;29;20558;-89
2022/08/10 11:34:02;;;;;;;4.13;1.20;;;34.30;47.40;;;;;;4954706;28;20036;-87
2022/08/10 11:37:03;;;;;;;3.35;1.00;;;34.30;46.40;;;;;;4963260;29;20055;-89
2022/08/10 11:39:41;;;;;;;3.15;0.95;;;34.50;46.90;;;;;;4948420;28;20130;-94
2022/08/10 11:42:30;;;;;;;5.13;0.95;;;34.50;45.90;;;;;;4947977;28;20027;-89
2022/08/10 11:44:59;;;;;;;5.22;1.20;;;34.70;45.70;;;;;;4949832;29;20034;-87
2022/08/10 11:47:33;;;;;;;3.30;1.10;;;34.90;45.70;;;;;;4950198;29;20035;-87
2022/08/10 11:50:11;;;;;;;;;;;34.90;46.10;;;;;;4950456;29;20067;-84
2022/08/10 11:53:09;;;;;;;8.18;1.10;;;35.00;45.80;;;;;;4949453;29;20371;-86
2022/08/10 11:55:35;;;;;;;4.70;1.30;;;35.10;45.80;;;;;;4929795;29;20034;-85
2022/08/10 12:00:52;;;;;;;2.72;1.13;;;35.20;44.60;;;;;;4950727;29;20485;-85
2022/08/10 12:03:18;;;;;;;2.65;0.90;;;35.40;44.60;;;;;;4950160;29;20529;-85
2022/08/10 12:05:46;;;;;;;6.00;1.25;;;35.50;44.00;;;;;;4950236;29;20031;-85
2022/08/10 12:08:18;;;;;;;5.43;1.08;;;35.60;44.00;;;;;;4949951;28;20059;-85
2022/08/10 12:10:46;;;;;;;3.92;0.90;;;35.60;44.30;;;;;;4952152;28;20444;-84
2022/08/10 12:13:23;;;;;;;5.35;1.00;;;35.80;43.90;;;;;;4936549;29;20024;-82
2022/08/10 12:15:53;;;;;;;5.30;1.10;;;35.80;44.70;;;;;;4953535;29;20035;-83
2022/08/10 12:18:24;;;;;;;6.95;1.25;;;35.90;43.90;;;;;;4953258;29;20494;-84
2022/08/10 12:20:56;;;;;;;3.25;1.08;;;36.00;44.20;;;;;;4953777;29;20023;-87
2022/08/10 12:23:31;;;;;;;4.97;1.30;;;36.10;44.50;;;;;;4953665;29;20051;-85
2022/08/10 12:26:13;;;;;;;3.08;1.00;;;36.20;44.00;;;;;;4952151;29;20522;-81
2022/08/10 12:28:57;;;;;;;4.70;1.60;;;36.30;43.90;;;;;;4951595;29;20027;-83
2022/08/10 12:31:33;;;;;;;3.13;0.93;;;36.40;43.30;;;;;;4953583;29;20046;-87
2022/08/10 12:34:44;;;;;;;7.00;0.93;;;36.60;43.90;;;;;;4939377;29;20547;-83
2022/08/10 12:37:25;;;;;;;5.82;1.10;;;36.80;44.20;;;;;;4941494;29;20430;-84
2022/08/10 12:40:27;;;;;;;7.15;1.02;;;37.00;43.90;;;;;;4952561;29;20200;-83
2022/08/10 12:43:14;;;;;;;4.43;1.00;;;37.10;43.80;;;;;;4953189;29;20114;-83
2022/08/10 12:45:54;;;;;;;6.07;1.00;;;37.20;43.20;;;;;;4953352;29;20093;-84
2022/08/10 12:48:30;;;;;;;9.45;1.77;;;37.20;43.70;;;;;;4952867;29;20027;-85
2022/08/10 12:51:13;;;;;;;4.05;0.90;;;37.30;43.70;;;;;;4935769;29;20039;-83
2022/08/10 12:53:38;;;;;;;2.80;1.00;;;37.40;43.30;;;;;;4952524;29;20496;-83
2022/08/10 12:56:05;;;;;;;6.32;0.88;;;37.60;43.40;;;;;;4953563;29;20065;-86
2022/08/10 12:58:33;;;;;;;4.28;1.00;;;37.70;43.10;;;;;;4953038;29;20130;-87
2022/08/10 13:01:01;;;;;;;2.55;0.90;;;37.60;43.00;;;;;;4953114;29;20019;-85
2022/08/10 13:03:29;;;;;;;2.35;1.00;;;37.80;43.60;;;;;;4953144;29;20442;-83
2022/08/10 13:05:56;;;;;;;2.42;0.80;;;37.90;42.70;;;;;;4952929;29;20062;-85
2022/08/10 13:11:10;;;;;;;5.47;0.98;;;38.00;42.70;;;;;;4952055;29;20574;-87
2022/08/10 13:13:40;;;;;;;3.33;1.00;;;38.10;42.50;;;;;;4952568;29;20099;-86
2022/08/10 13:16:06;;;;;;;2.28;0.90;;;38.40;42.00;;;;;;4954643;28;20558;-86
2022/08/10 13:18:36;;;;;;;3.80;0.98;;;38.60;42.60;;;;;;4952626;29;20248;-87
2022/08/10 13:21:06;;;;;;;2.42;0.82;;;38.80;42.90;;;;;;4951412;28;20038;-85
2022/08/10 13:23:39;;;;;;;2.47;0.77;;;38.90;42.20;;;;;;4951126;29;20098;-84